sensor_id;sensor_type;location;lat;lon;timestamp;temperature;humidity
14210;DHT22;7188;56.070;12.698;2023-07-09T00:02:16;16.30;1.00
14210;DHT22;7188;56.070;12.698;2023-07-09T00:04:42;16.30;1.00
14210;DHT22;7188;56.070;12.698;2023-07-09T00:09:41;16.30;1.00
14210;DHT22;7188;56.070;12.698;2023-07-09T00:12:13;16.20;1.00
14210;DHT22;7188;56.070;12.698;2023-07-09T00:14:39;16.20;1.00
14210;DHT22;7188;56.070;12.698;2023-07-09T00:17:12;16.20;1.00
14210;DHT22;7188;56.070;12.698;2023-07-09T00:19:38;16.30;1.00
14210;DHT22;7188;56.070;12.698;2023-07-09T00:22:14;16.40;1.00
14210;DHT22;7188;56.070;12.698;2023-07-09T00:24:44;16.40;1.00
14210;DHT22;7188;56.070;12.698;2023-07-09T00:27:11;16.30;1.00
14210;DHT22;7188;56.070;12.698;2023-07-09T00:29:38;16.20;1.00
14210;DHT22;7188;56.070;12.698;2023-07-09T00:32:10;16.00;1.00
14210;DHT22;7188;56.070;12.698;2023-07-09T00:34:36;16.00;1.00
14210;DHT22;7188;56.070;12.698;2023-07-09T00:37:02;16.00;1.00
14210;DHT22;7188;56.070;12.698;2023-07-09T00:39:28;16.00;36.30
14210;DHT22;7188;56.070;12.698;2023-07-09T00:41:54;16.20;34.30
14210;DHT22;7188;56.070;12.698;2023-07-09T00:49:34;16.10;1.00
14210;DHT22;7188;56.070;12.698;2023-07-09T00:52:07;16.00;11.10
14210;DHT22;7188;56.070;12.698;2023-07-09T00:54:40;15.90;42.00
14210;DHT22;7188;56.070;12.698;2023-07-09T00:57:15;15.90;99.90
14210;DHT22;7188;56.070;12.698;2023-07-09T00:59:45;15.80;99.90
14210;DHT22;7188;56.070;12.698;2023-07-09T01:02:11;15.80;99.90
14210;DHT22;7188;56.070;12.698;2023-07-09T01:04:37;15.90;99.90
14210;DHT22;7188;56.070;12.698;2023-07-09T01:07:04;16.00;99.90
14210;DHT22;7188;56.070;12.698;2023-07-09T01:09:30;15.90;99.90
14210;DHT22;7188;56.070;12.698;2023-07-09T01:11:58;15.90;99.90
14210;DHT22;7188;56.070;12.698;2023-07-09T01:14:26;15.90;99.90
14210;DHT22;7188;56.070;12.698;2023-07-09T01:16:57;16.00;99.90
14210;DHT22;7188;56.070;12.698;2023-07-09T01:19:27;16.00;99.90
14210;DHT22;7188;56.070;12.698;2023-07-09T01:21:58;16.10;99.90
14210;DHT22;7188;56.070;12.698;2023-07-09T01:27:26;16.00;1.00
14210;DHT22;7188;56.070;12.698;2023-07-09T01:29:54;15.90;99.90
14210;DHT22;7188;56.070;12.698;2023-07-09T01:32:21;15.80;99.90
14210;DHT22;7188;56.070;12.698;2023-07-09T01:34:50;15.70;99.90
14210;DHT22;7188;56.070;12.698;2023-07-09T01:37:17;15.70;99.90
14210;DHT22;7188;56.070;12.698;2023-07-09T01:39:44;15.70;1.00
14210;DHT22;7188;56.070;12.698;2023-07-09T01:42:09;15.70;99.90
14210;DHT22;7188;56.070;12.698;2023-07-09T01:44:36;15.70;99.90
14210;DHT22;7188;56.070;12.698;2023-07-09T01:47:04;15.70;99.90
14210;DHT22;7188;56.070;12.698;2023-07-09T01:49:30;15.70;99.90
14210;DHT22;7188;56.070;12.698;2023-07-09T01:52:01;15.70;99.90
14210;DHT22;7188;56.070;12.698;2023-07-09T01:54:31;15.80;99.90
14210;DHT22;7188;56.070;12.698;2023-07-09T01:57:17;15.90;99.90
14210;DHT22;7188;56.070;12.698;2023-07-09T01:59:45;15.90;99.90
14210;DHT22;7188;56.070;12.698;2023-07-09T02:02:11;15.80;99.90
14210;DHT22;7188;56.070;12.698;2023-07-09T02:04:45;15.60;99.90
14210;DHT22;7188;56.070;12.698;2023-07-09T02:07:10;15.40;1.00
14210;DHT22;7188;56.070;12.698;2023-07-09T02:09:36;15.40;1.00
14210;DHT22;7188;56.070;12.698;2023-07-09T02:12:02;15.40;1.00
14210;DHT22;7188;56.070;12.698;2023-07-09T02:14:28;15.40;1.00
14210;DHT22;7188;56.070;12.698;2023-07-09T02:16:53;15.40;1.00
14210;DHT22;7188;56.070;12.698;2023-07-09T02:19:19;15.50;1.00
14210;DHT22;7188;56.070;12.698;2023-07-09T02:21:45;15.60;1.00
14210;DHT22;7188;56.070;12.698;2023-07-09T02:24:10;15.60;1.00
14210;DHT22;7188;56.070;12.698;2023-07-09T02:26:36;15.70;1.00
14210;DHT22;7188;56.070;12.698;2023-07-09T02:29:02;15.80;1.00
14210;DHT22;7188;56.070;12.698;2023-07-09T02:31:27;15.90;1.00
14210;DHT22;7188;56.070;12.698;2023-07-09T02:33:56;15.90;99.90
14210;DHT22;7188;56.070;12.698;2023-07-09T02:36:23;15.70;99.90
14210;DHT22;7188;56.070;12.698;2023-07-09T02:38:49;15.70;99.90
14210;DHT22;7188;56.070;12.698;2023-07-09T02:41:15;15.60;99.90
14210;DHT22;7188;56.070;12.698;2023-07-09T02:43:41;15.60;1.00
14210;DHT22;7188;56.070;12.698;2023-07-09T02:46:06;15.70;1.00
14210;DHT22;7188;56.070;12.698;2023-07-09T02:48:32;15.80;1.00
14210;DHT22;7188;56.070;12.698;2023-07-09T02:50:58;15.80;1.00
14210;DHT22;7188;56.070;12.698;2023-07-09T02:53:24;16.00;1.00
14210;DHT22;7188;56.070;12.698;2023-07-09T02:55:49;16.00;1.00
14210;DHT22;7188;56.070;12.698;2023-07-09T02:58:15;16.00;99.90
14210;DHT22;7188;56.070;12.698;2023-07-09T03:00:41;16.00;99.90
14210;DHT22;7188;56.070;12.698;2023-07-09T03:03:07;16.00;99.90
14210;DHT22;7188;56.070;12.698;2023-07-09T03:05:33;16.20;1.00
14210;DHT22;7188;56.070;12.698;2023-07-09T03:07:59;16.40;1.00
14210;DHT22;7188;56.070;12.698;2023-07-09T03:10:24;16.70;1.00
14210;DHT22;7188;56.070;12.698;2023-07-09T03:12:50;17.00;99.90
14210;DHT22;7188;56.070;12.698;2023-07-09T03:15:16;17.30;99.90
14210;DHT22;7188;56.070;12.698;2023-07-09T03:17:41;17.50;35.20
14210;DHT22;7188;56.070;12.698;2023-07-09T03:20:29;17.60;1.00
14210;DHT22;7188;56.070;12.698;2023-07-09T03:22:54;18.10;1.00
14210;DHT22;7188;56.070;12.698;2023-07-09T03:25:20;18.30;1.00
14210;DHT22;7188;56.070;12.698;2023-07-09T03:27:49;18.50;1.00
14210;DHT22;7188;56.070;12.698;2023-07-09T03:30:30;18.50;99.90
14210;DHT22;7188;56.070;12.698;2023-07-09T03:32:55;18.50;99.90
14210;DHT22;7188;56.070;12.698;2023-07-09T03:35:21;18.20;99.90
14210;DHT22;7188;56.070;12.698;2023-07-09T03:37:50;18.10;1.00
14210;DHT22;7188;56.070;12.698;2023-07-09T03:40:21;17.80;1.00
14210;DHT22;7188;56.070;12.698;2023-07-09T03:42:47;17.70;1.00
14210;DHT22;7188;56.070;12.698;2023-07-09T03:45:13;17.60;1.00
14210;DHT22;7188;56.070;12.698;2023-07-09T03:47:38;17.70;1.00
14210;DHT22;7188;56.070;12.698;2023-07-09T03:50:08;17.90;1.00
14210;DHT22;7188;56.070;12.698;2023-07-09T03:52:34;18.00;1.00
14210;DHT22;7188;56.070;12.698;2023-07-09T03:55:00;18.10;1.00
14210;DHT22;7188;56.070;12.698;2023-07-09T03:57:27;18.20;1.00
14210;DHT22;7188;56.070;12.698;2023-07-09T03:59:52;18.20;1.00
14210;DHT22;7188;56.070;12.698;2023-07-09T04:02:18;18.30;1.00
14210;DHT22;7188;56.070;12.698;2023-07-09T04:04:44;18.40;1.00
14210;DHT22;7188;56.070;12.698;2023-07-09T04:07:10;18.40;1.00
14210;DHT22;7188;56.070;12.698;2023-07-09T04:09:35;18.60;1.00
14210;DHT22;7188;56.070;12.698;2023-07-09T04:12:01;18.70;1.00
14210;DHT22;7188;56.070;12.698;2023-07-09T04:14:27;18.80;1.00
14210;DHT22;7188;56.070;12.698;2023-07-09T04:16:53;18.80;1.00
14210;DHT22;7188;56.070;12.698;2023-07-09T04:19:19;19.00;1.00
14210;DHT22;7188;56.070;12.698;2023-07-09T04:21:44;19.10;1.00
14210;DHT22;7188;56.070;12.698;2023-07-09T04:24:10;19.30;1.00
14210;DHT22;7188;56.070;12.698;2023-07-09T04:26:36;19.60;1.00
14210;DHT22;7188;56.070;12.698;2023-07-09T04:29:04;19.80;1.00
14210;DHT22;7188;56.070;12.698;2023-07-09T04:31:30;20.10;1.00
14210;DHT22;7188;56.070;12.698;2023-07-09T04:33:56;20.20;1.00
14210;DHT22;7188;56.070;12.698;2023-07-09T04:36:22;20.40;1.00
14210;DHT22;7188;56.070;12.698;2023-07-09T04:38:47;20.50;1.00
14210;DHT22;7188;56.070;12.698;2023-07-09T04:41:13;20.70;1.00
14210;DHT22;7188;56.070;12.698;2023-07-09T04:43:39;20.80;1.00
14210;DHT22;7188;56.070;12.698;2023-07-09T04:46:04;20.80;1.00
14210;DHT22;7188;56.070;12.698;2023-07-09T04:48:30;20.70;1.00
14210;DHT22;7188;56.070;12.698;2023-07-09T04:50:58;20.80;1.00
14210;DHT22;7188;56.070;12.698;2023-07-09T04:53:25;20.90;1.00
14210;DHT22;7188;56.070;12.698;2023-07-09T04:55:51;20.90;1.00
14210;DHT22;7188;56.070;12.698;2023-07-09T04:58:18;21.10;1.00
14210;DHT22;7188;56.070;12.698;2023-07-09T05:00:46;21.30;1.00
14210;DHT22;7188;56.070;12.698;2023-07-09T05:03:12;21.40;1.00
14210;DHT22;7188;56.070;12.698;2023-07-09T05:05:47;21.30;1.00
14210;DHT22;7188;56.070;12.698;2023-07-09T05:08:14;21.50;1.00
14210;DHT22;7188;56.070;12.698;2023-07-09T05:10:51;21.40;1.00
14210;DHT22;7188;56.070;12.698;2023-07-09T05:13:17;21.10;1.00
14210;DHT22;7188;56.070;12.698;2023-07-09T05:15:45;20.90;1.00
14210;DHT22;7188;56.070;12.698;2023-07-09T05:18:12;21.00;1.00
14210;DHT22;7188;56.070;12.698;2023-07-09T05:20:38;20.90;1.00
14210;DHT22;7188;56.070;12.698;2023-07-09T05:23:04;20.60;1.00
14210;DHT22;7188;56.070;12.698;2023-07-09T05:25:30;20.60;1.00
14210;DHT22;7188;56.070;12.698;2023-07-09T05:27:55;20.80;1.00
14210;DHT22;7188;56.070;12.698;2023-07-09T05:30:21;21.10;1.00
14210;DHT22;7188;56.070;12.698;2023-07-09T05:32:47;21.30;1.00
14210;DHT22;7188;56.070;12.698;2023-07-09T05:35:13;21.40;1.00
14210;DHT22;7188;56.070;12.698;2023-07-09T05:37:39;21.50;1.00
14210;DHT22;7188;56.070;12.698;2023-07-09T05:40:06;21.30;1.00
14210;DHT22;7188;56.070;12.698;2023-07-09T05:42:32;21.40;1.00
14210;DHT22;7188;56.070;12.698;2023-07-09T05:44:58;21.50;1.00
14210;DHT22;7188;56.070;12.698;2023-07-09T05:47:25;21.50;1.00
14210;DHT22;7188;56.070;12.698;2023-07-09T05:49:51;21.30;99.90
14210;DHT22;7188;56.070;12.698;2023-07-09T05:52:18;21.30;99.90
14210;DHT22;7188;56.070;12.698;2023-07-09T05:54:43;21.30;99.90
14210;DHT22;7188;56.070;12.698;2023-07-09T05:57:10;21.30;99.90
14210;DHT22;7188;56.070;12.698;2023-07-09T05:59:36;21.40;99.90
14210;DHT22;7188;56.070;12.698;2023-07-09T06:02:01;21.70;99.90
14210;DHT22;7188;56.070;12.698;2023-07-09T06:04:28;21.60;99.90
14210;DHT22;7188;56.070;12.698;2023-07-09T06:06:56;21.50;99.90
14210;DHT22;7188;56.070;12.698;2023-07-09T06:09:22;21.40;99.90
14210;DHT22;7188;56.070;12.698;2023-07-09T06:11:47;21.30;99.90
14210;DHT22;7188;56.070;12.698;2023-07-09T06:14:13;21.40;99.90
14210;DHT22;7188;56.070;12.698;2023-07-09T06:16:39;21.50;99.90
14210;DHT22;7188;56.070;12.698;2023-07-09T06:19:05;21.50;99.90
14210;DHT22;7188;56.070;12.698;2023-07-09T06:21:30;21.50;99.90
14210;DHT22;7188;56.070;12.698;2023-07-09T06:23:56;21.70;99.90
14210;DHT22;7188;56.070;12.698;2023-07-09T06:26:21;21.70;99.90
14210;DHT22;7188;56.070;12.698;2023-07-09T06:28:47;21.80;99.90
14210;DHT22;7188;56.070;12.698;2023-07-09T06:31:13;21.90;99.90
14210;DHT22;7188;56.070;12.698;2023-07-09T06:34:12;21.90;99.90
14210;DHT22;7188;56.070;12.698;2023-07-09T06:36:38;22.00;99.90
14210;DHT22;7188;56.070;12.698;2023-07-09T06:39:04;21.90;99.90
14210;DHT22;7188;56.070;12.698;2023-07-09T06:41:31;21.90;99.90
14210;DHT22;7188;56.070;12.698;2023-07-09T06:43:58;22.00;99.90
14210;DHT22;7188;56.070;12.698;2023-07-09T06:46:23;22.10;99.90
14210;DHT22;7188;56.070;12.698;2023-07-09T06:48:49;22.20;99.90
14210;DHT22;7188;56.070;12.698;2023-07-09T06:51:15;22.20;1.00
14210;DHT22;7188;56.070;12.698;2023-07-09T06:53:40;22.30;1.00
14210;DHT22;7188;56.070;12.698;2023-07-09T06:56:08;22.20;99.90
14210;DHT22;7188;56.070;12.698;2023-07-09T06:58:35;22.40;99.90
14210;DHT22;7188;56.070;12.698;2023-07-09T07:01:03;22.50;99.90
14210;DHT22;7188;56.070;12.698;2023-07-09T07:03:30;22.80;99.90
14210;DHT22;7188;56.070;12.698;2023-07-09T07:05:56;23.00;1.00
14210;DHT22;7188;56.070;12.698;2023-07-09T07:08:24;23.00;99.90
14210;DHT22;7188;56.070;12.698;2023-07-09T07:10:55;23.10;99.90
14210;DHT22;7188;56.070;12.698;2023-07-09T07:13:28;23.00;99.90
14210;DHT22;7188;56.070;12.698;2023-07-09T07:15:54;23.00;99.90
14210;DHT22;7188;56.070;12.698;2023-07-09T07:18:19;23.00;99.90
14210;DHT22;7188;56.070;12.698;2023-07-09T07:20:46;23.10;99.90
14210;DHT22;7188;56.070;12.698;2023-07-09T07:23:11;23.30;99.90
14210;DHT22;7188;56.070;12.698;2023-07-09T07:25:37;23.10;1.00
14210;DHT22;7188;56.070;12.698;2023-07-09T07:28:03;23.10;22.30
14210;DHT22;7188;56.070;12.698;2023-07-09T07:30:29;23.00;1.00
14210;DHT22;7188;56.070;12.698;2023-07-09T07:32:54;23.00;1.00
14210;DHT22;7188;56.070;12.698;2023-07-09T07:35:20;23.10;1.00
14210;DHT22;7188;56.070;12.698;2023-07-09T07:37:46;23.00;1.00
14210;DHT22;7188;56.070;12.698;2023-07-09T07:40:11;23.30;1.00
14210;DHT22;7188;56.070;12.698;2023-07-09T07:42:46;23.40;1.00
14210;DHT22;7188;56.070;12.698;2023-07-09T07:45:12;23.30;1.00
14210;DHT22;7188;56.070;12.698;2023-07-09T07:47:37;23.30;1.00
14210;DHT22;7188;56.070;12.698;2023-07-09T07:50:05;23.30;1.00
14210;DHT22;7188;56.070;12.698;2023-07-09T07:52:33;23.30;1.00
14210;DHT22;7188;56.070;12.698;2023-07-09T07:55:04;23.30;1.00
14210;DHT22;7188;56.070;12.698;2023-07-09T07:57:30;23.20;1.00
14210;DHT22;7188;56.070;12.698;2023-07-09T07:59:56;23.20;1.00
14210;DHT22;7188;56.070;12.698;2023-07-09T08:02:46;23.20;1.00
14210;DHT22;7188;56.070;12.698;2023-07-09T08:05:12;23.40;1.00
14210;DHT22;7188;56.070;12.698;2023-07-09T08:07:37;23.60;1.00
14210;DHT22;7188;56.070;12.698;2023-07-09T08:10:03;23.90;1.00
14210;DHT22;7188;56.070;12.698;2023-07-09T08:12:29;24.10;1.00
14210;DHT22;7188;56.070;12.698;2023-07-09T08:14:54;24.10;1.00
14210;DHT22;7188;56.070;12.698;2023-07-09T08:17:20;24.20;1.00
14210;DHT22;7188;56.070;12.698;2023-07-09T08:19:53;24.30;1.00
14210;DHT22;7188;56.070;12.698;2023-07-09T08:22:20;24.50;1.00
14210;DHT22;7188;56.070;12.698;2023-07-09T08:24:50;24.50;1.00
14210;DHT22;7188;56.070;12.698;2023-07-09T08:27:17;24.30;1.00
14210;DHT22;7188;56.070;12.698;2023-07-09T08:29:42;24.30;1.00
14210;DHT22;7188;56.070;12.698;2023-07-09T08:32:09;24.40;1.00
14210;DHT22;7188;56.070;12.698;2023-07-09T08:34:36;24.60;1.00
14210;DHT22;7188;56.070;12.698;2023-07-09T08:37:02;24.60;1.00
14210;DHT22;7188;56.070;12.698;2023-07-09T08:39:29;24.80;1.00
14210;DHT22;7188;56.070;12.698;2023-07-09T08:42:02;24.90;1.00
14210;DHT22;7188;56.070;12.698;2023-07-09T08:47:05;24.40;1.00
14210;DHT22;7188;56.070;12.698;2023-07-09T08:50:02;24.40;1.00
14210;DHT22;7188;56.070;12.698;2023-07-09T08:52:44;24.60;1.00
14210;DHT22;7188;56.070;12.698;2023-07-09T08:55:14;24.80;1.00
14210;DHT22;7188;56.070;12.698;2023-07-09T08:57:43;24.70;1.00
14210;DHT22;7188;56.070;12.698;2023-07-09T09:03:08;24.90;1.00
14210;DHT22;7188;56.070;12.698;2023-07-09T09:05:39;25.10;1.00
14210;DHT22;7188;56.070;12.698;2023-07-09T09:08:40;25.10;1.00
14210;DHT22;7188;56.070;12.698;2023-07-09T09:11:14;25.10;1.00
14210;DHT22;7188;56.070;12.698;2023-07-09T09:13:41;25.00;1.00
14210;DHT22;7188;56.070;12.698;2023-07-09T09:16:24;25.10;1.00
14210;DHT22;7188;56.070;12.698;2023-07-09T09:18:55;25.20;1.00
14210;DHT22;7188;56.070;12.698;2023-07-09T09:21:35;25.10;1.00
14210;DHT22;7188;56.070;12.698;2023-07-09T09:26:39;25.20;1.00
14210;DHT22;7188;56.070;12.698;2023-07-09T09:29:11;25.10;1.00
14210;DHT22;7188;56.070;12.698;2023-07-09T09:31:37;25.20;1.00
14210;DHT22;7188;56.070;12.698;2023-07-09T09:34:03;25.10;1.00
14210;DHT22;7188;56.070;12.698;2023-07-09T09:36:30;25.10;1.00
14210;DHT22;7188;56.070;12.698;2023-07-09T09:39:01;24.90;1.00
14210;DHT22;7188;56.070;12.698;2023-07-09T09:41:30;24.90;1.00
14210;DHT22;7188;56.070;12.698;2023-07-09T09:43:58;24.70;1.00
14210;DHT22;7188;56.070;12.698;2023-07-09T09:46:26;24.60;1.00
14210;DHT22;7188;56.070;12.698;2023-07-09T09:48:59;24.70;1.00
14210;DHT22;7188;56.070;12.698;2023-07-09T09:51:25;24.80;1.00
14210;DHT22;7188;56.070;12.698;2023-07-09T09:53:57;24.60;1.00
14210;DHT22;7188;56.070;12.698;2023-07-09T09:56:29;24.70;1.00
14210;DHT22;7188;56.070;12.698;2023-07-09T09:58:56;24.70;1.00
14210;DHT22;7188;56.070;12.698;2023-07-09T10:01:30;24.80;1.00
14210;DHT22;7188;56.070;12.698;2023-07-09T10:03:58;24.70;1.00
14210;DHT22;7188;56.070;12.698;2023-07-09T10:06:54;24.60;1.00
14210;DHT22;7188;56.070;12.698;2023-07-09T10:09:46;24.80;1.00
14210;DHT22;7188;56.070;12.698;2023-07-09T10:17:51;25.20;1.00
14210;DHT22;7188;56.070;12.698;2023-07-09T10:20:35;25.00;1.00
14210;DHT22;7188;56.070;12.698;2023-07-09T10:25:49;25.10;1.00
14210;DHT22;7188;56.070;12.698;2023-07-09T10:28:29;25.10;99.90
14210;DHT22;7188;56.070;12.698;2023-07-09T10:39:34;25.10;99.90
14210;DHT22;7188;56.070;12.698;2023-07-09T10:42:02;25.10;99.90
14210;DHT22;7188;56.070;12.698;2023-07-09T10:44:35;25.40;99.90
14210;DHT22;7188;56.070;12.698;2023-07-09T10:47:06;25.40;99.90
14210;DHT22;7188;56.070;12.698;2023-07-09T10:49:38;25.40;99.90
14210;DHT22;7188;56.070;12.698;2023-07-09T10:52:27;25.30;99.90
14210;DHT22;7188;56.070;12.698;2023-07-09T10:57:54;25.20;99.90
14210;DHT22;7188;56.070;12.698;2023-07-09T11:00:25;24.90;99.90
14210;DHT22;7188;56.070;12.698;2023-07-09T11:03:04;24.90;99.90
14210;DHT22;7188;56.070;12.698;2023-07-09T11:05:31;24.80;99.90
14210;DHT22;7188;56.070;12.698;2023-07-09T11:08:12;24.70;99.90
14210;DHT22;7188;56.070;12.698;2023-07-09T11:10:52;24.70;99.90
14210;DHT22;7188;56.070;12.698;2023-07-09T11:15:59;25.30;1.00
14210;DHT22;7188;56.070;12.698;2023-07-09T11:18:34;25.50;99.90
14210;DHT22;7188;56.070;12.698;2023-07-09T11:21:14;25.80;99.90
14210;DHT22;7188;56.070;12.698;2023-07-09T11:23:53;25.80;99.90
14210;DHT22;7188;56.070;12.698;2023-07-09T11:26:34;25.80;99.90
14210;DHT22;7188;56.070;12.698;2023-07-09T11:31:37;25.70;99.90
14210;DHT22;7188;56.070;12.698;2023-07-09T11:36:50;25.70;99.90
14210;DHT22;7188;56.070;12.698;2023-07-09T11:39:22;25.60;99.90
14210;DHT22;7188;56.070;12.698;2023-07-09T11:41:48;25.70;99.90
14210;DHT22;7188;56.070;12.698;2023-07-09T11:44:26;25.80;99.90
14210;DHT22;7188;56.070;12.698;2023-07-09T11:53:04;26.10;99.90
14210;DHT22;7188;56.070;12.698;2023-07-09T11:57:52;26.30;99.90
14210;DHT22;7188;56.070;12.698;2023-07-09T12:00:17;26.40;99.90
14210;DHT22;7188;56.070;12.698;2023-07-09T12:02:43;26.40;99.90
14210;DHT22;7188;56.070;12.698;2023-07-09T12:05:09;26.20;99.90
14210;DHT22;7188;56.070;12.698;2023-07-09T12:07:35;26.20;99.90
14210;DHT22;7188;56.070;12.698;2023-07-09T12:10:03;26.00;99.90
14210;DHT22;7188;56.070;12.698;2023-07-09T12:12:41;25.80;99.90
14210;DHT22;7188;56.070;12.698;2023-07-09T12:15:28;25.80;99.90
14210;DHT22;7188;56.070;12.698;2023-07-09T12:17:59;25.80;99.90
14210;DHT22;7188;56.070;12.698;2023-07-09T12:20:31;25.80;99.90
14210;DHT22;7188;56.070;12.698;2023-07-09T12:22:57;25.70;99.90
14210;DHT22;7188;56.070;12.698;2023-07-09T12:25:25;25.80;99.90
14210;DHT22;7188;56.070;12.698;2023-07-09T12:27:52;26.00;99.90
14210;DHT22;7188;56.070;12.698;2023-07-09T12:30:19;26.10;99.90
14210;DHT22;7188;56.070;12.698;2023-07-09T12:32:46;26.10;99.90
14210;DHT22;7188;56.070;12.698;2023-07-09T12:35:14;26.10;99.90
14210;DHT22;7188;56.070;12.698;2023-07-09T12:37:42;26.10;99.90
14210;DHT22;7188;56.070;12.698;2023-07-09T12:40:30;25.90;99.90
14210;DHT22;7188;56.070;12.698;2023-07-09T12:42:56;26.20;99.90
14210;DHT22;7188;56.070;12.698;2023-07-09T12:45:23;26.10;99.90
14210;DHT22;7188;56.070;12.698;2023-07-09T12:47:49;25.90;99.90
14210;DHT22;7188;56.070;12.698;2023-07-09T12:50:41;25.90;99.90
14210;DHT22;7188;56.070;12.698;2023-07-09T12:53:17;26.00;99.90
14210;DHT22;7188;56.070;12.698;2023-07-09T12:55:45;26.20;99.90
14210;DHT22;7188;56.070;12.698;2023-07-09T12:58:21;26.20;99.90
14210;DHT22;7188;56.070;12.698;2023-07-09T13:00:50;26.40;99.90
14210;DHT22;7188;56.070;12.698;2023-07-09T13:03:19;26.40;99.90
14210;DHT22;7188;56.070;12.698;2023-07-09T13:06:03;26.40;99.90
14210;DHT22;7188;56.070;12.698;2023-07-09T13:08:32;26.60;99.90
14210;DHT22;7188;56.070;12.698;2023-07-09T13:10:59;26.60;99.90
14210;DHT22;7188;56.070;12.698;2023-07-09T13:13:25;26.60;99.90
14210;DHT22;7188;56.070;12.698;2023-07-09T13:15:55;26.70;99.90
14210;DHT22;7188;56.070;12.698;2023-07-09T13:18:23;26.70;99.90
14210;DHT22;7188;56.070;12.698;2023-07-09T13:20:50;26.70;99.90
14210;DHT22;7188;56.070;12.698;2023-07-09T13:25:47;26.40;99.90
14210;DHT22;7188;56.070;12.698;2023-07-09T13:28:16;26.30;99.90
14210;DHT22;7188;56.070;12.698;2023-07-09T13:30:43;26.10;99.90
14210;DHT22;7188;56.070;12.698;2023-07-09T13:33:09;26.00;99.90
14210;DHT22;7188;56.070;12.698;2023-07-09T13:35:36;25.70;99.90
14210;DHT22;7188;56.070;12.698;2023-07-09T13:38:01;25.40;99.90
14210;DHT22;7188;56.070;12.698;2023-07-09T13:40:30;25.40;99.90
14210;DHT22;7188;56.070;12.698;2023-07-09T13:42:55;25.50;99.90
14210;DHT22;7188;56.070;12.698;2023-07-09T13:45:24;25.60;99.90
14210;DHT22;7188;56.070;12.698;2023-07-09T13:47:51;25.70;99.90
14210;DHT22;7188;56.070;12.698;2023-07-09T13:50:21;25.70;99.90
14210;DHT22;7188;56.070;12.698;2023-07-09T13:52:48;25.80;99.90
14210;DHT22;7188;56.070;12.698;2023-07-09T13:55:22;26.00;99.90
14210;DHT22;7188;56.070;12.698;2023-07-09T13:57:49;26.00;99.90
14210;DHT22;7188;56.070;12.698;2023-07-09T14:00:16;26.00;99.90
14210;DHT22;7188;56.070;12.698;2023-07-09T14:02:49;26.10;99.90
14210;DHT22;7188;56.070;12.698;2023-07-09T14:05:14;26.20;99.90
14210;DHT22;7188;56.070;12.698;2023-07-09T14:07:41;26.10;99.90
14210;DHT22;7188;56.070;12.698;2023-07-09T14:10:13;26.10;99.90
14210;DHT22;7188;56.070;12.698;2023-07-09T14:12:43;26.20;99.90
14210;DHT22;7188;56.070;12.698;2023-07-09T14:15:14;26.40;99.90
14210;DHT22;7188;56.070;12.698;2023-07-09T14:17:40;26.60;99.90
14210;DHT22;7188;56.070;12.698;2023-07-09T14:20:07;26.70;99.90
14210;DHT22;7188;56.070;12.698;2023-07-09T14:22:36;26.70;99.90
14210;DHT22;7188;56.070;12.698;2023-07-09T14:25:04;26.70;99.90
14210;DHT22;7188;56.070;12.698;2023-07-09T14:27:30;26.70;99.90
14210;DHT22;7188;56.070;12.698;2023-07-09T14:29:56;26.60;99.90
14210;DHT22;7188;56.070;12.698;2023-07-09T14:34:57;26.90;99.90
14210;DHT22;7188;56.070;12.698;2023-07-09T14:37:22;27.10;99.90
14210;DHT22;7188;56.070;12.698;2023-07-09T14:39:48;27.20;99.90
14210;DHT22;7188;56.070;12.698;2023-07-09T14:42:14;27.00;99.90
14210;DHT22;7188;56.070;12.698;2023-07-09T14:44:41;26.90;99.90
14210;DHT22;7188;56.070;12.698;2023-07-09T14:47:14;27.00;99.90
14210;DHT22;7188;56.070;12.698;2023-07-09T14:49:40;26.80;99.90
14210;DHT22;7188;56.070;12.698;2023-07-09T14:52:16;26.70;99.90
14210;DHT22;7188;56.070;12.698;2023-07-09T14:54:46;26.60;99.90
14210;DHT22;7188;56.070;12.698;2023-07-09T14:57:26;26.70;99.90
14210;DHT22;7188;56.070;12.698;2023-07-09T14:59:53;26.70;99.90
14210;DHT22;7188;56.070;12.698;2023-07-09T15:02:35;26.70;99.90
14210;DHT22;7188;56.070;12.698;2023-07-09T15:05:04;26.70;99.90
14210;DHT22;7188;56.070;12.698;2023-07-09T15:07:30;26.60;99.90
14210;DHT22;7188;56.070;12.698;2023-07-09T15:09:57;26.60;99.90
14210;DHT22;7188;56.070;12.698;2023-07-09T15:12:27;26.60;99.90
14210;DHT22;7188;56.070;12.698;2023-07-09T15:15:03;26.60;99.90
14210;DHT22;7188;56.070;12.698;2023-07-09T15:17:31;26.60;99.90
14210;DHT22;7188;56.070;12.698;2023-07-09T15:20:17;26.60;99.90
14210;DHT22;7188;56.070;12.698;2023-07-09T15:22:43;26.20;99.90
14210;DHT22;7188;56.070;12.698;2023-07-09T15:25:14;26.00;99.90
14210;DHT22;7188;56.070;12.698;2023-07-09T15:27:40;26.00;99.90
14210;DHT22;7188;56.070;12.698;2023-07-09T15:30:18;26.00;99.90
14210;DHT22;7188;56.070;12.698;2023-07-09T15:32:46;26.10;99.90
14210;DHT22;7188;56.070;12.698;2023-07-09T15:35:13;26.20;99.90
14210;DHT22;7188;56.070;12.698;2023-07-09T15:37:39;26.30;99.90
14210;DHT22;7188;56.070;12.698;2023-07-09T15:42:39;26.30;99.90
14210;DHT22;7188;56.070;12.698;2023-07-09T15:45:05;26.40;99.90
14210;DHT22;7188;56.070;12.698;2023-07-09T15:47:31;26.30;99.90
14210;DHT22;7188;56.070;12.698;2023-07-09T15:49:56;26.20;99.90
14210;DHT22;7188;56.070;12.698;2023-07-09T15:52:23;26.30;99.90
14210;DHT22;7188;56.070;12.698;2023-07-09T15:54:49;26.30;99.90
14210;DHT22;7188;56.070;12.698;2023-07-09T15:57:21;26.40;99.90
14210;DHT22;7188;56.070;12.698;2023-07-09T15:59:47;26.60;99.90
14210;DHT22;7188;56.070;12.698;2023-07-09T16:02:14;26.70;99.90
14210;DHT22;7188;56.070;12.698;2023-07-09T16:04:44;26.70;99.90
14210;DHT22;7188;56.070;12.698;2023-07-09T16:07:10;26.70;99.90
14210;DHT22;7188;56.070;12.698;2023-07-09T16:09:36;26.70;99.90
14210;DHT22;7188;56.070;12.698;2023-07-09T16:12:22;26.70;99.90
14210;DHT22;7188;56.070;12.698;2023-07-09T16:15:00;26.70;99.90
14210;DHT22;7188;56.070;12.698;2023-07-09T16:17:26;26.50;99.90
14210;DHT22;7188;56.070;12.698;2023-07-09T16:19:51;26.40;99.90
14210;DHT22;7188;56.070;12.698;2023-07-09T16:22:18;26.50;99.90
14210;DHT22;7188;56.070;12.698;2023-07-09T16:24:45;26.40;99.90
14210;DHT22;7188;56.070;12.698;2023-07-09T16:27:15;26.40;99.90
14210;DHT22;7188;56.070;12.698;2023-07-09T16:29:40;26.60;99.90
14210;DHT22;7188;56.070;12.698;2023-07-09T16:32:06;26.70;99.90
14210;DHT22;7188;56.070;12.698;2023-07-09T16:34:32;26.70;99.90
14210;DHT22;7188;56.070;12.698;2023-07-09T16:36:58;26.60;99.90
14210;DHT22;7188;56.070;12.698;2023-07-09T16:39:32;26.40;99.90
14210;DHT22;7188;56.070;12.698;2023-07-09T16:41:59;26.20;99.90
14210;DHT22;7188;56.070;12.698;2023-07-09T16:44:25;25.90;99.90
14210;DHT22;7188;56.070;12.698;2023-07-09T16:46:52;25.90;99.90
14210;DHT22;7188;56.070;12.698;2023-07-09T16:49:38;25.70;99.90
14210;DHT22;7188;56.070;12.698;2023-07-09T16:52:21;25.80;99.90